sensor_id;sensor_type;location;lat;lon;timestamp;P1;durP1;ratioP1;P2;durP2;ratioP2
39044;SDS011;52192;52.002;5.956;2023-11-22T00:00:45;3.40;;;1.98;;
39044;SDS011;52192;52.002;5.956;2023-11-22T00:03:11;3.85;;;2.67;;
39044;SDS011;52192;52.002;5.956;2023-11-22T00:05:37;3.05;;;2.10;;
39044;SDS011;52192;52.002;5.956;2023-11-22T00:08:03;4.10;;;3.05;;
39044;SDS011;52192;52.002;5.956;2023-11-22T00:10:29;4.78;;;3.00;;
39044;SDS011;52192;52.002;5.956;2023-11-22T00:12:54;6.10;;;3.10;;
39044;SDS011;52192;52.002;5.956;2023-11-22T00:15:20;6.05;;;2.67;;
39044;SDS011;52192;52.002;5.956;2023-11-22T00:17:46;3.90;;;2.10;;
39044;SDS011;52192;52.002;5.956;2023-11-22T00:20:12;5.13;;;2.88;;
39044;SDS011;52192;52.002;5.956;2023-11-22T00:22:38;3.47;;;2.28;;
39044;SDS011;52192;52.002;5.956;2023-11-22T00:25:04;3.65;;;2.35;;
39044;SDS011;52192;52.002;5.956;2023-11-22T00:27:30;3.88;;;2.53;;
39044;SDS011;52192;52.002;5.956;2023-11-22T00:29:59;3.92;;;1.85;;
39044;SDS011;52192;52.002;5.956;2023-11-22T00:32:25;5.22;;;3.25;;
39044;SDS011;52192;52.002;5.956;2023-11-22T00:34:51;5.03;;;3.00;;
39044;SDS011;52192;52.002;5.956;2023-11-22T00:37:17;4.22;;;2.45;;
39044;SDS011;52192;52.002;5.956;2023-11-22T00:39:43;11.10;;;3.45;;
39044;SDS011;52192;52.002;5.956;2023-11-22T00:42:09;6.15;;;3.50;;
39044;SDS011;52192;52.002;5.956;2023-11-22T00:44:34;3.53;;;2.40;;
39044;SDS011;52192;52.002;5.956;2023-11-22T00:47:01;3.03;;;1.95;;
39044;SDS011;52192;52.002;5.956;2023-11-22T00:49:27;5.55;;;2.72;;
39044;SDS011;52192;52.002;5.956;2023-11-22T00:51:53;5.13;;;2.88;;
39044;SDS011;52192;52.002;5.956;2023-11-22T00:54:19;4.70;;;2.97;;
39044;SDS011;52192;52.002;5.956;2023-11-22T00:56:45;4.93;;;2.35;;
39044;SDS011;52192;52.002;5.956;2023-11-22T00:59:11;6.30;;;2.78;;
39044;SDS011;52192;52.002;5.956;2023-11-22T01:01:37;3.75;;;2.90;;
39044;SDS011;52192;52.002;5.956;2023-11-22T01:04:03;3.85;;;2.60;;
39044;SDS011;52192;52.002;5.956;2023-11-22T01:06:31;4.22;;;2.50;;
39044;SDS011;52192;52.002;5.956;2023-11-22T01:08:57;4.75;;;2.72;;
39044;SDS011;52192;52.002;5.956;2023-11-22T01:11:23;4.75;;;2.78;;
39044;SDS011;52192;52.002;5.956;2023-11-22T01:13:48;4.00;;;2.38;;
39044;SDS011;52192;52.002;5.956;2023-11-22T01:16:15;3.78;;;2.10;;
39044;SDS011;52192;52.002;5.956;2023-11-22T01:18:41;3.42;;;2.17;;
39044;SDS011;52192;52.002;5.956;2023-11-22T01:21:08;3.65;;;2.88;;
39044;SDS011;52192;52.002;5.956;2023-11-22T01:23:34;5.07;;;2.85;;
39044;SDS011;52192;52.002;5.956;2023-11-22T01:26:00;4.47;;;2.90;;
39044;SDS011;52192;52.002;5.956;2023-11-22T01:28:28;3.10;;;2.15;;
39044;SDS011;52192;52.002;5.956;2023-11-22T01:30:53;3.58;;;3.08;;
39044;SDS011;52192;52.002;5.956;2023-11-22T01:33:20;4.25;;;2.70;;
39044;SDS011;52192;52.002;5.956;2023-11-22T01:35:48;4.72;;;2.40;;
39044;SDS011;52192;52.002;5.956;2023-11-22T01:38:15;3.13;;;2.33;;
39044;SDS011;52192;52.002;5.956;2023-11-22T01:40:44;4.38;;;2.80;;
39044;SDS011;52192;52.002;5.956;2023-11-22T01:43:14;4.75;;;3.28;;
39044;SDS011;52192;52.002;5.956;2023-11-22T01:45:42;4.22;;;2.75;;
39044;SDS011;52192;52.002;5.956;2023-11-22T01:48:07;5.38;;;2.97;;
39044;SDS011;52192;52.002;5.956;2023-11-22T01:50:36;5.88;;;2.88;;
39044;SDS011;52192;52.002;5.956;2023-11-22T01:53:09;5.50;;;2.88;;
39044;SDS011;52192;52.002;5.956;2023-11-22T01:55:37;5.18;;;2.90;;
39044;SDS011;52192;52.002;5.956;2023-11-22T01:58:04;3.70;;;2.65;;
39044;SDS011;52192;52.002;5.956;2023-11-22T02:00:32;4.13;;;2.40;;
39044;SDS011;52192;52.002;5.956;2023-11-22T02:03:01;5.35;;;2.33;;
39044;SDS011;52192;52.002;5.956;2023-11-22T02:05:27;5.57;;;2.47;;
39044;SDS011;52192;52.002;5.956;2023-11-22T02:07:53;5.32;;;2.85;;
39044;SDS011;52192;52.002;5.956;2023-11-22T02:10:19;3.05;;;1.90;;
39044;SDS011;52192;52.002;5.956;2023-11-22T02:12:45;4.30;;;2.65;;
39044;SDS011;52192;52.002;5.956;2023-11-22T02:15:11;4.25;;;2.47;;
39044;SDS011;52192;52.002;5.956;2023-11-22T02:17:37;4.03;;;2.50;;
39044;SDS011;52192;52.002;5.956;2023-11-22T02:20:03;4.30;;;1.90;;
39044;SDS011;52192;52.002;5.956;2023-11-22T02:22:33;3.25;;;2.35;;
39044;SDS011;52192;52.002;5.956;2023-11-22T02:24:59;4.07;;;2.53;;
39044;SDS011;52192;52.002;5.956;2023-11-22T02:27:25;4.18;;;2.78;;
39044;SDS011;52192;52.002;5.956;2023-11-22T02:29:50;6.35;;;2.85;;
39044;SDS011;52192;52.002;5.956;2023-11-22T02:32:16;4.10;;;2.42;;
39044;SDS011;52192;52.002;5.956;2023-11-22T02:34:43;3.80;;;2.20;;
39044;SDS011;52192;52.002;5.956;2023-11-22T02:37:11;5.20;;;2.67;;
39044;SDS011;52192;52.002;5.956;2023-11-22T02:39:48;4.65;;;2.75;;
39044;SDS011;52192;52.002;5.956;2023-11-22T02:42:25;4.15;;;2.30;;
39044;SDS011;52192;52.002;5.956;2023-11-22T02:44:51;4.80;;;2.70;;
39044;SDS011;52192;52.002;5.956;2023-11-22T02:47:16;3.60;;;2.70;;
39044;SDS011;52192;52.002;5.956;2023-11-22T02:49:42;7.15;;;3.05;;
39044;SDS011;52192;52.002;5.956;2023-11-22T02:52:09;4.18;;;2.53;;
39044;SDS011;52192;52.002;5.956;2023-11-22T02:54:36;3.65;;;2.20;;
39044;SDS011;52192;52.002;5.956;2023-11-22T02:57:02;4.97;;;2.42;;
39044;SDS011;52192;52.002;5.956;2023-11-22T02:59:28;5.40;;;3.15;;
39044;SDS011;52192;52.002;5.956;2023-11-22T03:01:54;2.88;;;2.03;;
39044;SDS011;52192;52.002;5.956;2023-11-22T03:04:19;6.97;;;3.90;;
39044;SDS011;52192;52.002;5.956;2023-11-22T03:06:45;4.40;;;2.85;;
39044;SDS011;52192;52.002;5.956;2023-11-22T03:09:11;5.85;;;3.00;;
39044;SDS011;52192;52.002;5.956;2023-11-22T03:11:38;5.00;;;2.58;;
39044;SDS011;52192;52.002;5.956;2023-11-22T03:14:04;4.10;;;2.50;;
39044;SDS011;52192;52.002;5.956;2023-11-22T03:16:30;3.80;;;2.95;;
39044;SDS011;52192;52.002;5.956;2023-11-22T03:18:55;4.60;;;2.92;;
39044;SDS011;52192;52.002;5.956;2023-11-22T03:21:23;6.15;;;3.38;;
39044;SDS011;52192;52.002;5.956;2023-11-22T03:23:51;4.40;;;3.40;;
39044;SDS011;52192;52.002;5.956;2023-11-22T03:26:16;10.18;;;3.63;;
39044;SDS011;52192;52.002;5.956;2023-11-22T03:28:42;4.47;;;2.75;;
39044;SDS011;52192;52.002;5.956;2023-11-22T03:31:08;3.40;;;2.22;;
39044;SDS011;52192;52.002;5.956;2023-11-22T03:33:35;5.80;;;3.53;;
39044;SDS011;52192;52.002;5.956;2023-11-22T03:36:00;5.20;;;2.83;;
39044;SDS011;52192;52.002;5.956;2023-11-22T03:38:27;4.28;;;2.78;;
39044;SDS011;52192;52.002;5.956;2023-11-22T03:40:53;3.78;;;2.50;;
39044;SDS011;52192;52.002;5.956;2023-11-22T03:43:19;3.10;;;2.80;;
39044;SDS011;52192;52.002;5.956;2023-11-22T03:45:44;3.55;;;2.33;;
39044;SDS011;52192;52.002;5.956;2023-11-22T03:48:10;6.55;;;2.30;;
39044;SDS011;52192;52.002;5.956;2023-11-22T03:50:37;5.20;;;3.10;;
39044;SDS011;52192;52.002;5.956;2023-11-22T03:53:02;2.95;;;2.35;;
39044;SDS011;52192;52.002;5.956;2023-11-22T03:55:28;2.55;;;1.80;;
39044;SDS011;52192;52.002;5.956;2023-11-22T03:57:54;5.10;;;2.83;;
39044;SDS011;52192;52.002;5.956;2023-11-22T04:00:20;3.05;;;2.13;;
39044;SDS011;52192;52.002;5.956;2023-11-22T04:02:45;3.60;;;2.40;;
39044;SDS011;52192;52.002;5.956;2023-11-22T04:05:11;5.38;;;3.05;;
39044;SDS011;52192;52.002;5.956;2023-11-22T04:07:37;4.70;;;2.55;;
39044;SDS011;52192;52.002;5.956;2023-11-22T04:10:04;5.40;;;3.05;;
39044;SDS011;52192;52.002;5.956;2023-11-22T04:12:31;5.80;;;3.28;;
39044;SDS011;52192;52.002;5.956;2023-11-22T04:14:57;2.92;;;2.15;;
39044;SDS011;52192;52.002;5.956;2023-11-22T04:17:23;4.88;;;2.90;;
39044;SDS011;52192;52.002;5.956;2023-11-22T04:19:49;3.80;;;2.47;;
39044;SDS011;52192;52.002;5.956;2023-11-22T04:22:14;6.60;;;2.72;;
39044;SDS011;52192;52.002;5.956;2023-11-22T04:24:40;5.38;;;2.65;;
39044;SDS011;52192;52.002;5.956;2023-11-22T04:27:06;4.93;;;2.58;;
39044;SDS011;52192;52.002;5.956;2023-11-22T04:29:32;4.05;;;2.33;;
39044;SDS011;52192;52.002;5.956;2023-11-22T04:31:58;4.43;;;2.88;;
39044;SDS011;52192;52.002;5.956;2023-11-22T04:34:23;3.70;;;2.53;;
39044;SDS011;52192;52.002;5.956;2023-11-22T04:36:49;4.95;;;2.28;;
39044;SDS011;52192;52.002;5.956;2023-11-22T04:39:15;13.13;;;3.20;;
39044;SDS011;52192;52.002;5.956;2023-11-22T04:41:40;3.33;;;2.38;;
39044;SDS011;52192;52.002;5.956;2023-11-22T04:44:06;3.40;;;2.13;;
39044;SDS011;52192;52.002;5.956;2023-11-22T04:46:32;2.88;;;2.15;;
39044;SDS011;52192;52.002;5.956;2023-11-22T04:48:58;6.07;;;2.63;;
39044;SDS011;52192;52.002;5.956;2023-11-22T04:51:24;3.38;;;2.58;;
39044;SDS011;52192;52.002;5.956;2023-11-22T04:53:49;5.28;;;2.58;;
39044;SDS011;52192;52.002;5.956;2023-11-22T04:56:16;3.83;;;2.38;;
39044;SDS011;52192;52.002;5.956;2023-11-22T04:58:42;4.45;;;1.73;;
39044;SDS011;52192;52.002;5.956;2023-11-22T05:01:08;4.43;;;3.00;;
39044;SDS011;52192;52.002;5.956;2023-11-22T05:03:36;4.82;;;3.17;;
39044;SDS011;52192;52.002;5.956;2023-11-22T05:06:03;3.03;;;2.33;;
39044;SDS011;52192;52.002;5.956;2023-11-22T05:08:29;3.47;;;2.53;;
39044;SDS011;52192;52.002;5.956;2023-11-22T05:10:55;4.75;;;2.70;;
39044;SDS011;52192;52.002;5.956;2023-11-22T05:13:21;6.00;;;3.45;;
39044;SDS011;52192;52.002;5.956;2023-11-22T05:15:46;7.53;;;3.28;;
39044;SDS011;52192;52.002;5.956;2023-11-22T05:18:12;5.95;;;3.47;;
39044;SDS011;52192;52.002;5.956;2023-11-22T05:20:38;3.78;;;2.45;;
39044;SDS011;52192;52.002;5.956;2023-11-22T05:23:04;5.60;;;2.90;;
39044;SDS011;52192;52.002;5.956;2023-11-22T05:25:29;6.78;;;3.63;;
39044;SDS011;52192;52.002;5.956;2023-11-22T05:27:55;5.80;;;2.92;;
39044;SDS011;52192;52.002;5.956;2023-11-22T05:30:21;4.78;;;2.90;;
39044;SDS011;52192;52.002;5.956;2023-11-22T05:32:47;6.68;;;3.53;;
39044;SDS011;52192;52.002;5.956;2023-11-22T05:35:13;6.07;;;3.05;;
39044;SDS011;52192;52.002;5.956;2023-11-22T05:37:39;5.47;;;2.75;;
39044;SDS011;52192;52.002;5.956;2023-11-22T05:40:05;5.53;;;2.97;;
39044;SDS011;52192;52.002;5.956;2023-11-22T05:42:34;4.05;;;2.30;;
39044;SDS011;52192;52.002;5.956;2023-11-22T05:45:01;5.22;;;2.35;;
39044;SDS011;52192;52.002;5.956;2023-11-22T05:47:28;6.60;;;2.92;;
39044;SDS011;52192;52.002;5.956;2023-11-22T05:49:54;5.57;;;2.90;;
39044;SDS011;52192;52.002;5.956;2023-11-22T05:52:20;3.60;;;2.65;;
39044;SDS011;52192;52.002;5.956;2023-11-22T05:54:47;6.35;;;2.47;;
39044;SDS011;52192;52.002;5.956;2023-11-22T05:57:12;7.43;;;3.67;;
39044;SDS011;52192;52.002;5.956;2023-11-22T05:59:41;3.83;;;2.25;;
39044;SDS011;52192;52.002;5.956;2023-11-22T06:02:07;5.38;;;3.08;;
39044;SDS011;52192;52.002;5.956;2023-11-22T06:04:33;4.32;;;2.78;;
39044;SDS011;52192;52.002;5.956;2023-11-22T06:06:59;6.10;;;3.25;;
39044;SDS011;52192;52.002;5.956;2023-11-22T06:09:25;3.70;;;2.20;;
39044;SDS011;52192;52.002;5.956;2023-11-22T06:11:51;6.03;;;3.55;;
39044;SDS011;52192;52.002;5.956;2023-11-22T06:14:19;4.63;;;2.97;;
39044;SDS011;52192;52.002;5.956;2023-11-22T06:16:45;7.68;;;3.40;;
39044;SDS011;52192;52.002;5.956;2023-11-22T06:19:10;4.63;;;3.00;;
39044;SDS011;52192;52.002;5.956;2023-11-22T06:21:36;6.20;;;3.03;;
39044;SDS011;52192;52.002;5.956;2023-11-22T06:24:03;4.95;;;2.55;;
39044;SDS011;52192;52.002;5.956;2023-11-22T06:26:33;3.03;;;2.65;;
39044;SDS011;52192;52.002;5.956;2023-11-22T06:28:59;4.95;;;2.97;;
39044;SDS011;52192;52.002;5.956;2023-11-22T06:31:25;5.55;;;3.20;;
39044;SDS011;52192;52.002;5.956;2023-11-22T06:33:51;5.65;;;2.75;;
39044;SDS011;52192;52.002;5.956;2023-11-22T06:36:17;5.60;;;3.10;;
39044;SDS011;52192;52.002;5.956;2023-11-22T06:38:43;5.43;;;2.78;;
39044;SDS011;52192;52.002;5.956;2023-11-22T06:41:11;4.30;;;2.63;;
39044;SDS011;52192;52.002;5.956;2023-11-22T06:43:36;4.32;;;2.88;;
39044;SDS011;52192;52.002;5.956;2023-11-22T06:46:02;5.07;;;3.10;;
39044;SDS011;52192;52.002;5.956;2023-11-22T06:48:31;4.07;;;2.90;;
39044;SDS011;52192;52.002;5.956;2023-11-22T06:50:57;5.13;;;3.13;;
39044;SDS011;52192;52.002;5.956;2023-11-22T06:53:23;6.35;;;3.53;;
39044;SDS011;52192;52.002;5.956;2023-11-22T06:55:50;7.20;;;2.63;;
39044;SDS011;52192;52.002;5.956;2023-11-22T06:58:16;4.20;;;3.03;;
39044;SDS011;52192;52.002;5.956;2023-11-22T07:00:43;5.25;;;2.92;;
39044;SDS011;52192;52.002;5.956;2023-11-22T07:03:09;6.38;;;3.40;;
39044;SDS011;52192;52.002;5.956;2023-11-22T07:05:35;4.97;;;3.20;;
39044;SDS011;52192;52.002;5.956;2023-11-22T07:08:01;5.78;;;3.30;;
39044;SDS011;52192;52.002;5.956;2023-11-22T07:10:28;4.45;;;2.72;;
39044;SDS011;52192;52.002;5.956;2023-11-22T07:12:57;6.82;;;2.72;;
39044;SDS011;52192;52.002;5.956;2023-11-22T07:15:23;4.28;;;2.95;;
39044;SDS011;52192;52.002;5.956;2023-11-22T07:17:49;4.15;;;2.92;;
39044;SDS011;52192;52.002;5.956;2023-11-22T07:20:15;4.43;;;2.60;;
39044;SDS011;52192;52.002;5.956;2023-11-22T07:22:42;3.70;;;2.75;;
39044;SDS011;52192;52.002;5.956;2023-11-22T07:25:08;4.22;;;2.80;;
39044;SDS011;52192;52.002;5.956;2023-11-22T07:27:43;5.00;;;2.97;;
39044;SDS011;52192;52.002;5.956;2023-11-22T07:30:10;5.05;;;2.67;;
39044;SDS011;52192;52.002;5.956;2023-11-22T07:32:38;4.22;;;2.85;;
39044;SDS011;52192;52.002;5.956;2023-11-22T07:35:07;4.40;;;2.78;;
39044;SDS011;52192;52.002;5.956;2023-11-22T07:37:36;6.10;;;3.13;;
39044;SDS011;52192;52.002;5.956;2023-11-22T07:40:07;4.63;;;3.33;;
39044;SDS011;52192;52.002;5.956;2023-11-22T07:42:35;4.82;;;2.78;;
39044;SDS011;52192;52.002;5.956;2023-11-22T07:45:01;4.13;;;2.55;;
39044;SDS011;52192;52.002;5.956;2023-11-22T07:47:27;4.97;;;2.67;;
39044;SDS011;52192;52.002;5.956;2023-11-22T07:49:53;7.18;;;3.83;;
39044;SDS011;52192;52.002;5.956;2023-11-22T07:52:20;6.53;;;3.17;;
39044;SDS011;52192;52.002;5.956;2023-11-22T07:54:46;5.93;;;2.90;;
39044;SDS011;52192;52.002;5.956;2023-11-22T07:57:13;4.75;;;3.13;;
39044;SDS011;52192;52.002;5.956;2023-11-22T07:59:39;5.25;;;2.78;;
39044;SDS011;52192;52.002;5.956;2023-11-22T08:02:05;5.30;;;3.55;;
39044;SDS011;52192;52.002;5.956;2023-11-22T08:04:36;4.75;;;3.05;;
39044;SDS011;52192;52.002;5.956;2023-11-22T08:07:03;5.32;;;3.60;;
39044;SDS011;52192;52.002;5.956;2023-11-22T08:09:29;4.57;;;2.78;;
39044;SDS011;52192;52.002;5.956;2023-11-22T08:11:57;5.05;;;3.00;;
39044;SDS011;52192;52.002;5.956;2023-11-22T08:14:26;4.80;;;3.38;;
39044;SDS011;52192;52.002;5.956;2023-11-22T08:16:53;9.18;;;3.10;;
39044;SDS011;52192;52.002;5.956;2023-11-22T08:19:19;4.80;;;3.60;;
39044;SDS011;52192;52.002;5.956;2023-11-22T08:21:45;6.90;;;4.22;;
39044;SDS011;52192;52.002;5.956;2023-11-22T08:24:10;7.85;;;4.85;;
39044;SDS011;52192;52.002;5.956;2023-11-22T08:26:38;8.05;;;3.53;;
39044;SDS011;52192;52.002;5.956;2023-11-22T08:29:04;7.75;;;4.43;;
39044;SDS011;52192;52.002;5.956;2023-11-22T08:31:30;9.20;;;3.20;;
39044;SDS011;52192;52.002;5.956;2023-11-22T08:33:55;5.75;;;3.70;;
39044;SDS011;52192;52.002;5.956;2023-11-22T08:36:21;8.98;;;4.82;;
39044;SDS011;52192;52.002;5.956;2023-11-22T08:38:48;6.38;;;3.85;;
39044;SDS011;52192;52.002;5.956;2023-11-22T08:41:14;5.35;;;3.70;;
39044;SDS011;52192;52.002;5.956;2023-11-22T08:43:40;6.80;;;3.65;;
39044;SDS011;52192;52.002;5.956;2023-11-22T08:46:06;6.50;;;3.63;;
39044;SDS011;52192;52.002;5.956;2023-11-22T08:48:33;5.93;;;3.97;;
39044;SDS011;52192;52.002;5.956;2023-11-22T08:50:59;5.60;;;3.15;;
39044;SDS011;52192;52.002;5.956;2023-11-22T08:53:26;7.68;;;3.90;;
39044;SDS011;52192;52.002;5.956;2023-11-22T08:55:52;8.57;;;4.35;;
39044;SDS011;52192;52.002;5.956;2023-11-22T08:58:20;6.63;;;4.32;;
39044;SDS011;52192;52.002;5.956;2023-11-22T09:00:47;8.18;;;4.20;;
39044;SDS011;52192;52.002;5.956;2023-11-22T09:03:12;6.00;;;3.70;;
39044;SDS011;52192;52.002;5.956;2023-11-22T09:05:39;6.03;;;3.42;;
39044;SDS011;52192;52.002;5.956;2023-11-22T09:08:05;6.80;;;4.13;;
39044;SDS011;52192;52.002;5.956;2023-11-22T09:10:31;5.70;;;3.72;;
39044;SDS011;52192;52.002;5.956;2023-11-22T09:12:57;4.93;;;3.15;;
39044;SDS011;52192;52.002;5.956;2023-11-22T09:15:25;6.80;;;4.00;;
39044;SDS011;52192;52.002;5.956;2023-11-22T09:17:54;5.30;;;3.15;;
39044;SDS011;52192;52.002;5.956;2023-11-22T09:20:21;5.35;;;4.00;;
39044;SDS011;52192;52.002;5.956;2023-11-22T09:22:47;5.15;;;3.60;;
39044;SDS011;52192;52.002;5.956;2023-11-22T09:25:18;4.50;;;3.30;;
39044;SDS011;52192;52.002;5.956;2023-11-22T09:27:54;5.32;;;3.38;;
39044;SDS011;52192;52.002;5.956;2023-11-22T09:30:24;6.05;;;4.20;;
39044;SDS011;52192;52.002;5.956;2023-11-22T09:33:04;7.60;;;3.45;;
39044;SDS011;52192;52.002;5.956;2023-11-22T09:35:32;5.07;;;3.72;;
39044;SDS011;52192;52.002;5.956;2023-11-22T09:38:02;8.68;;;4.32;;
39044;SDS011;52192;52.002;5.956;2023-11-22T09:40:29;6.80;;;4.20;;
39044;SDS011;52192;52.002;5.956;2023-11-22T09:42:59;8.70;;;5.10;;
39044;SDS011;52192;52.002;5.956;2023-11-22T09:45:27;7.75;;;4.82;;
39044;SDS011;52192;52.002;5.956;2023-11-22T09:47:55;7.22;;;4.10;;
39044;SDS011;52192;52.002;5.956;2023-11-22T09:53:22;7.25;;;4.65;;
39044;SDS011;52192;52.002;5.956;2023-11-22T09:55:52;9.32;;;3.53;;
39044;SDS011;52192;52.002;5.956;2023-11-22T09:58:18;6.60;;;4.70;;
39044;SDS011;52192;52.002;5.956;2023-11-22T10:00:46;5.72;;;4.15;;
39044;SDS011;52192;52.002;5.956;2023-11-22T10:03:12;7.53;;;3.83;;
39044;SDS011;52192;52.002;5.956;2023-11-22T10:05:41;6.25;;;3.63;;
39044;SDS011;52192;52.002;5.956;2023-11-22T10:08:07;11.45;;;4.93;;
39044;SDS011;52192;52.002;5.956;2023-11-22T10:10:35;5.38;;;3.20;;
39044;SDS011;52192;52.002;5.956;2023-11-22T10:13:02;7.10;;;3.55;;
39044;SDS011;52192;52.002;5.956;2023-11-22T10:15:28;7.18;;;4.10;;
39044;SDS011;52192;52.002;5.956;2023-11-22T10:20:25;6.32;;;3.65;;
39044;SDS011;52192;52.002;5.956;2023-11-22T10:23:01;4.72;;;3.75;;
39044;SDS011;52192;52.002;5.956;2023-11-22T10:25:27;6.60;;;3.50;;
39044;SDS011;52192;52.002;5.956;2023-11-22T10:27:54;6.85;;;4.57;;
39044;SDS011;52192;52.002;5.956;2023-11-22T10:30:20;4.05;;;3.58;;
39044;SDS011;52192;52.002;5.956;2023-11-22T10:32:46;5.18;;;4.07;;
39044;SDS011;52192;52.002;5.956;2023-11-22T10:35:11;8.30;;;4.78;;
39044;SDS011;52192;52.002;5.956;2023-11-22T10:37:41;7.03;;;4.20;;
39044;SDS011;52192;52.002;5.956;2023-11-22T10:40:11;7.07;;;3.63;;
39044;SDS011;52192;52.002;5.956;2023-11-22T10:42:39;8.63;;;3.75;;
39044;SDS011;52192;52.002;5.956;2023-11-22T10:45:07;9.48;;;4.38;;
39044;SDS011;52192;52.002;5.956;2023-11-22T10:47:38;7.97;;;3.85;;
39044;SDS011;52192;52.002;5.956;2023-11-22T10:52:33;5.05;;;3.50;;
39044;SDS011;52192;52.002;5.956;2023-11-22T10:55:01;8.93;;;4.03;;
39044;SDS011;52192;52.002;5.956;2023-11-22T10:57:32;5.25;;;3.17;;
39044;SDS011;52192;52.002;5.956;2023-11-22T11:00:04;4.55;;;3.35;;
39044;SDS011;52192;52.002;5.956;2023-11-22T11:02:34;13.00;;;4.05;;
39044;SDS011;52192;52.002;5.956;2023-11-22T11:05:08;5.88;;;4.03;;
39044;SDS011;52192;52.002;5.956;2023-11-22T11:08:08;5.53;;;2.90;;
39044;SDS011;52192;52.002;5.956;2023-11-22T11:10:40;5.15;;;3.97;;
39044;SDS011;52192;52.002;5.956;2023-11-22T11:13:06;6.45;;;3.65;;
39044;SDS011;52192;52.002;5.956;2023-11-22T11:15:34;4.07;;;2.88;;
39044;SDS011;52192;52.002;5.956;2023-11-22T11:18:01;7.43;;;3.35;;
39044;SDS011;52192;52.002;5.956;2023-11-22T11:20:31;7.20;;;4.05;;
39044;SDS011;52192;52.002;5.956;2023-11-22T11:23:30;5.13;;;2.72;;
39044;SDS011;52192;52.002;5.956;2023-11-22T11:25:57;6.60;;;3.20;;
39044;SDS011;52192;52.002;5.956;2023-11-22T11:28:27;4.85;;;2.92;;
39044;SDS011;52192;52.002;5.956;2023-11-22T11:31:16;3.67;;;3.20;;
39044;SDS011;52192;52.002;5.956;2023-11-22T11:38:49;5.68;;;3.53;;
39044;SDS011;52192;52.002;5.956;2023-11-22T11:41:17;7.00;;;3.83;;
39044;SDS011;52192;52.002;5.956;2023-11-22T11:43:47;5.22;;;2.75;;
39044;SDS011;52192;52.002;5.956;2023-11-22T11:46:16;3.58;;;2.92;;
39044;SDS011;52192;52.002;5.956;2023-11-22T11:48:52;4.43;;;2.20;;
39044;SDS011;52192;52.002;5.956;2023-11-22T11:51:19;4.63;;;3.15;;
39044;SDS011;52192;52.002;5.956;2023-11-22T11:53:47;6.70;;;4.18;;
39044;SDS011;52192;52.002;5.956;2023-11-22T11:56:14;5.50;;;3.22;;
39044;SDS011;52192;52.002;5.956;2023-11-22T11:58:43;5.30;;;2.95;;
39044;SDS011;52192;52.002;5.956;2023-11-22T12:01:14;5.78;;;2.80;;
39044;SDS011;52192;52.002;5.956;2023-11-22T12:03:45;6.43;;;3.92;;
39044;SDS011;52192;52.002;5.956;2023-11-22T12:06:17;6.18;;;3.55;;
39044;SDS011;52192;52.002;5.956;2023-11-22T12:08:44;6.03;;;3.45;;
39044;SDS011;52192;52.002;5.956;2023-11-22T12:11:12;4.70;;;3.33;;
39044;SDS011;52192;52.002;5.956;2023-11-22T12:13:38;6.20;;;4.03;;
39044;SDS011;52192;52.002;5.956;2023-11-22T12:16:06;7.78;;;3.78;;
39044;SDS011;52192;52.002;5.956;2023-11-22T12:18:42;6.95;;;4.40;;
39044;SDS011;52192;52.002;5.956;2023-11-22T12:21:10;8.05;;;3.95;;
39044;SDS011;52192;52.002;5.956;2023-11-22T12:23:42;7.68;;;4.05;;
39044;SDS011;52192;52.002;5.956;2023-11-22T12:26:17;6.50;;;4.13;;
39044;SDS011;52192;52.002;5.956;2023-11-22T12:28:46;7.97;;;4.10;;
39044;SDS011;52192;52.002;5.956;2023-11-22T12:31:13;6.75;;;3.70;;
39044;SDS011;52192;52.002;5.956;2023-11-22T12:33:40;9.30;;;4.28;;
39044;SDS011;52192;52.002;5.956;2023-11-22T12:36:07;6.60;;;3.80;;
39044;SDS011;52192;52.002;5.956;2023-11-22T12:38:35;8.43;;;4.93;;
39044;SDS011;52192;52.002;5.956;2023-11-22T12:41:02;10.13;;;4.05;;
39044;SDS011;52192;52.002;5.956;2023-11-22T12:43:31;7.28;;;4.15;;
39044;SDS011;52192;52.002;5.956;2023-11-22T12:46:04;5.57;;;3.38;;
39044;SDS011;52192;52.002;5.956;2023-11-22T12:48:41;5.38;;;2.92;;
39044;SDS011;52192;52.002;5.956;2023-11-22T12:51:16;6.18;;;3.15;;
39044;SDS011;52192;52.002;5.956;2023-11-22T12:53:45;9.20;;;4.93;;
39044;SDS011;52192;52.002;5.956;2023-11-22T12:56:15;7.47;;;3.80;;
39044;SDS011;52192;52.002;5.956;2023-11-22T12:58:41;8.70;;;4.47;;
39044;SDS011;52192;52.002;5.956;2023-11-22T13:01:06;9.13;;;4.97;;
39044;SDS011;52192;52.002;5.956;2023-11-22T13:03:32;6.57;;;3.95;;
39044;SDS011;52192;52.002;5.956;2023-11-22T13:05:58;6.80;;;3.67;;
39044;SDS011;52192;52.002;5.956;2023-11-22T13:08:24;9.70;;;5.22;;
39044;SDS011;52192;52.002;5.956;2023-11-22T13:10:54;7.00;;;4.13;;
39044;SDS011;52192;52.002;5.956;2023-11-22T13:13:23;8.40;;;4.28;;
39044;SDS011;52192;52.002;5.956;2023-11-22T13:15:50;6.05;;;3.38;;
39044;SDS011;52192;52.002;5.956;2023-11-22T13:18:17;8.25;;;4.35;;
39044;SDS011;52192;52.002;5.956;2023-11-22T13:20:43;8.73;;;4.65;;
39044;SDS011;52192;52.002;5.956;2023-11-22T13:23:09;7.80;;;4.10;;
39044;SDS011;52192;52.002;5.956;2023-11-22T13:25:35;11.45;;;4.25;;
39044;SDS011;52192;52.002;5.956;2023-11-22T13:28:01;10.48;;;5.18;;
39044;SDS011;52192;52.002;5.956;2023-11-22T13:30:29;8.15;;;4.28;;
39044;SDS011;52192;52.002;5.956;2023-11-22T13:32:55;10.10;;;5.35;;
39044;SDS011;52192;52.002;5.956;2023-11-22T13:35:22;10.40;;;5.53;;
39044;SDS011;52192;52.002;5.956;2023-11-22T13:37:49;7.97;;;4.40;;
39044;SDS011;52192;52.002;5.956;2023-11-22T13:40:15;8.65;;;5.07;;
39044;SDS011;52192;52.002;5.956;2023-11-22T13:42:47;8.45;;;3.88;;
39044;SDS011;52192;52.002;5.956;2023-11-22T13:45:15;7.33;;;4.90;;
39044;SDS011;52192;52.002;5.956;2023-11-22T13:47:46;10.98;;;4.35;;
39044;SDS011;52192;52.002;5.956;2023-11-22T13:50:13;6.90;;;3.47;;
39044;SDS011;52192;52.002;5.956;2023-11-22T13:52:43;10.13;;;4.32;;
39044;SDS011;52192;52.002;5.956;2023-11-22T13:55:16;13.52;;;5.80;;
39044;SDS011;52192;52.002;5.956;2023-11-22T13:57:49;9.93;;;5.13;;
39044;SDS011;52192;52.002;5.956;2023-11-22T14:00:23;12.85;;;5.18;;
39044;SDS011;52192;52.002;5.956;2023-11-22T14:02:55;13.70;;;5.53;;
39044;SDS011;52192;52.002;5.956;2023-11-22T14:05:30;12.13;;;6.15;;
39044;SDS011;52192;52.002;5.956;2023-11-22T14:07:57;10.45;;;5.45;;
39044;SDS011;52192;52.002;5.956;2023-11-22T14:10:23;12.77;;;5.88;;
39044;SDS011;52192;52.002;5.956;2023-11-22T14:12:49;9.77;;;5.28;;
39044;SDS011;52192;52.002;5.956;2023-11-22T14:15:16;12.35;;;6.25;;
39044;SDS011;52192;52.002;5.956;2023-11-22T14:17:42;13.00;;;6.32;;
39044;SDS011;52192;52.002;5.956;2023-11-22T14:20:08;13.15;;;5.28;;
39044;SDS011;52192;52.002;5.956;2023-11-22T14:22:38;10.23;;;5.35;;
39044;SDS011;52192;52.002;5.956;2023-11-22T14:25:05;11.00;;;6.63;;
39044;SDS011;52192;52.002;5.956;2023-11-22T14:27:39;16.75;;;7.45;;
39044;SDS011;52192;52.002;5.956;2023-11-22T14:30:08;15.25;;;6.97;;
39044;SDS011;52192;52.002;5.956;2023-11-22T14:32:36;10.05;;;6.82;;
39044;SDS011;52192;52.002;5.956;2023-11-22T14:35:03;15.52;;;7.53;;
39044;SDS011;52192;52.002;5.956;2023-11-22T14:37:29;13.93;;;6.32;;
39044;SDS011;52192;52.002;5.956;2023-11-22T14:39:55;13.13;;;6.93;;
39044;SDS011;52192;52.002;5.956;2023-11-22T14:42:21;12.23;;;6.63;;
39044;SDS011;52192;52.002;5.956;2023-11-22T14:44:49;18.38;;;8.35;;
39044;SDS011;52192;52.002;5.956;2023-11-22T14:47:16;16.75;;;7.43;;
39044;SDS011;52192;52.002;5.956;2023-11-22T14:49:48;11.43;;;7.20;;
39044;SDS011;52192;52.002;5.956;2023-11-22T14:52:14;13.82;;;7.07;;
39044;SDS011;52192;52.002;5.956;2023-11-22T14:54:41;12.95;;;7.22;;
39044;SDS011;52192;52.002;5.956;2023-11-22T14:57:07;18.83;;;8.70;;
39044;SDS011;52192;52.002;5.956;2023-11-22T14:59:35;19.58;;;8.25;;